Time;durP1;ratioP1;P1;durP2;ratioP2;P2;SDS_P1;SDS_P2;PMS_P1;PMS_P2;Temp;Humidity;BMP_temperature;BMP_pressure;BME280_temperature;BME280_humidity;BME280_pressure;Samples;Min_cycle;Max_cycle;Signal;HPM_P1;HPM_P2
2022/05/30 00:03:01;;;;;;;0.57;0.27;;;12.50;99.90;;;11.28;76.03;99557.69;10245295;28;97029;-87
2022/05/30 00:08:05;;;;;;;0.10;0.10;;;12.50;99.90;;;11.28;75.15;99552.38;10265539;28;96664;-86
2022/05/30 00:13:08;;;;;;;0.20;0.20;;;12.50;99.90;;;11.30;75.07;99550.34;10233662;28;96577;-87
2022/05/30 00:18:12;;;;;;;0.03;0.00;;;12.50;99.90;;;11.31;74.79;99536.84;10232791;28;97230;-86
2022/05/30 00:23:15;;;;;;;0.33;0.23;;;12.60;99.90;;;11.28;74.94;99534.56;10256127;28;97202;-86
2022/05/30 00:28:18;;;;;;;0.43;0.43;;;12.50;99.90;;;11.29;75.07;99532.75;10208882;28;96509;-87
2022/05/30 00:33:21;;;;;;;0.83;0.50;;;12.50;99.90;;;11.25;75.16;99530.44;10274342;28;96996;-86
2022/05/30 00:38:24;;;;;;;0.00;0.00;;;12.50;99.90;;;11.24;75.11;99514.69;10231219;28;98738;-87
2022/05/30 00:43:35;;;;;;;0.67;0.30;;;12.40;99.90;;;11.21;75.32;99507.88;10244264;28;96473;-87
2022/05/30 00:48:55;;;;;;;;;;;12.40;99.90;;;11.22;75.67;99500.75;10249415;28;96655;-87
2022/05/30 00:53:59;;;;;;;0.23;0.20;;;12.40;99.90;;;11.19;75.76;99506.44;10248969;28;97249;-88
2022/05/30 00:59:03;;;;;;;0.13;0.03;;;12.40;99.90;;;11.18;75.81;99492.31;10230513;28;98840;-86
2022/05/30 01:09:44;;;;;;;0.97;0.30;;;12.40;99.90;;;11.18;75.42;99479.03;10269040;28;96640;-87
2022/05/30 01:14:48;;;;;;;0.10;0.10;;;12.40;99.90;;;11.20;75.03;99478.81;10243853;28;98367;-88
2022/05/30 01:20:11;;;;;;;0.17;0.17;;;12.40;99.90;;;11.20;74.62;99476.16;10243820;28;97378;-88
2022/05/30 01:25:34;;;;;;;0.00;0.00;;;12.40;99.90;;;11.22;74.44;99464.34;10247955;28;96992;-87
2022/05/30 01:30:40;;;;;;;0.80;0.10;;;12.40;99.90;;;11.22;73.93;99459.03;10274967;28;96627;-88
2022/05/30 01:35:43;;;;;;;0.00;0.00;;;12.40;99.90;;;11.24;73.42;99458.84;10226162;28;96574;-88
2022/05/30 01:40:46;;;;;;;0.30;0.30;;;12.40;99.90;;;11.25;73.32;99455.16;10262766;28;96562;-86
2022/05/30 01:45:49;;;;;;;1.53;0.57;;;12.50;99.90;;;11.27;72.96;99453.13;10242268;28;96593;-87
2022/05/30 01:50:57;;;;;;;0.00;0.00;;;12.50;99.90;;;11.29;72.27;99452.94;10268641;28;96589;-87
2022/05/30 01:56:00;;;;;;;0.13;0.10;;;12.50;99.90;;;11.29;72.24;99453.75;10269602;28;97152;-87
2022/05/30 02:01:16;;;;;;;0.00;0.00;;;12.50;99.90;;;11.30;71.75;99444.78;10254682;28;97151;-87
2022/05/30 02:06:22;;;;;;;0.20;0.20;;;12.50;99.90;;;11.32;71.47;99456.03;10236108;28;96722;-88
2022/05/30 02:11:25;;;;;;;0.10;0.10;;;12.50;99.90;;;11.31;71.09;99465.03;10253861;28;96616;-87
2022/05/30 02:21:53;;;;;;;0.00;0.00;;;12.50;99.90;;;11.33;70.97;99465.66;10260044;28;101048;-88
2022/05/30 02:26:56;;;;;;;0.20;0.17;;;12.50;99.90;;;11.32;71.18;99469.31;10237782;28;97503;-88
2022/05/30 02:31:59;;;;;;;0.10;0.10;;;12.50;99.90;;;11.34;71.25;99472.66;10215527;28;96660;-87
2022/05/30 02:37:03;;;;;;;0.03;0.03;;;12.60;99.90;;;11.34;71.72;99485.94;10256809;28;97146;-87
2022/05/30 02:42:07;;;;;;;0.00;0.00;;;12.50;99.90;;;11.33;71.81;99470.16;10245597;28;97770;-87
2022/05/30 02:47:10;;;;;;;0.00;0.00;;;12.50;99.90;;;11.35;71.87;99478.78;10249623;28;96755;-86
2022/05/30 02:52:13;;;;;;;0.00;0.00;;;12.60;99.90;;;11.34;71.76;99499.25;10220923;28;96813;-88
2022/05/30 02:57:16;;;;;;;0.10;0.10;;;12.50;99.90;;;11.31;71.83;99494.28;10262573;28;96817;-87
2022/05/30 03:02:19;;;;;;;0.00;0.00;;;12.50;99.90;;;11.32;72.45;99493.28;10264789;28;97203;-87
2022/05/30 03:07:23;;;;;;;0.30;0.20;;;12.50;99.90;;;11.34;72.39;99504.56;10260738;28;96689;-87
2022/05/30 03:12:26;;;;;;;0.00;0.00;;;12.50;99.90;;;11.35;72.38;99521.34;10261349;28;96894;-87
2022/05/30 03:17:29;;;;;;;0.03;0.00;;;12.60;99.90;;;11.38;73.02;99521.78;10256985;28;96674;-86
2022/05/30 03:22:32;;;;;;;0.40;0.30;;;12.60;99.90;;;11.39;72.61;99526.06;10239941;28;98206;-86
2022/05/30 03:27:35;;;;;;;0.03;0.03;;;12.60;99.90;;;11.40;72.47;99527.75;10277206;28;97597;-87
2022/05/30 03:32:39;;;;;;;0.00;0.00;;;12.60;99.90;;;11.43;72.65;99530.00;10256603;28;97480;-86
2022/05/30 03:37:43;;;;;;;0.43;0.27;;;12.70;99.90;;;11.45;72.70;99527.97;10248169;28;96823;-86
2022/05/30 03:42:46;;;;;;;0.33;0.30;;;12.70;99.90;;;11.48;73.08;99532.94;10247002;28;98604;-87
2022/05/30 03:47:50;;;;;;;0.00;0.00;;;12.70;99.90;;;11.53;72.98;99527.06;10228672;28;98285;-87
2022/05/30 03:52:53;;;;;;;0.20;0.20;;;12.70;99.90;;;11.57;73.05;99525.63;10242254;28;96622;-86
2022/05/30 03:57:56;;;;;;;0.50;0.13;;;12.80;99.90;;;11.63;72.86;99529.38;10233533;28;96741;-87
2022/05/30 04:03:01;;;;;;;0.27;0.07;;;12.80;99.90;;;11.71;72.45;99531.91;10235907;28;96649;-86
2022/05/30 04:08:05;;;;;;;0.00;0.00;;;12.90;99.90;;;11.83;72.40;99529.59;10255111;28;96583;-86
2022/05/30 04:13:08;;;;;;;0.10;0.10;;;13.00;99.90;;;11.88;72.22;99522.69;10265648;28;96438;-86
2022/05/30 04:18:12;;;;;;;0.77;0.20;;;13.10;99.90;;;11.96;72.18;99513.72;10270730;28;97340;-86
2022/05/30 04:23:16;;;;;;;0.10;0.10;;;13.20;99.90;;;12.06;72.28;99535.53;10263286;28;98427;-87
2022/05/30 04:28:19;;;;;;;0.10;0.10;;;13.30;99.90;;;12.16;71.85;99532.50;10253026;28;98258;-86
2022/05/30 04:33:22;;;;;;;0.17;0.10;;;13.30;99.90;;;12.28;71.55;99542.41;10257573;28;96626;-86
2022/05/30 04:38:25;;;;;;;0.10;0.10;;;13.50;99.90;;;12.43;71.32;99542.31;10244025;28;96700;-86
2022/05/30 04:43:28;;;;;;;0.33;0.20;;;13.60;99.90;;;12.55;70.95;99540.75;10277827;28;98314;-87
2022/05/30 04:48:32;;;;;;;0.23;0.17;;;13.80;99.90;;;12.68;70.48;99544.50;10244630;28;97350;-87
2022/05/30 04:53:35;;;;;;;0.23;0.03;;;13.80;99.90;;;12.74;69.75;99547.22;10244281;28;97156;-87
2022/05/30 04:58:38;;;;;;;0.17;0.10;;;13.90;99.90;;;12.82;69.71;99556.88;10227844;28;98238;-88
2022/05/30 05:03:43;;;;;;;0.57;0.37;;;13.90;99.90;;;12.86;69.38;99564.28;10230994;28;97163;-89
2022/05/30 05:09:23;;;;;;;0.40;0.20;;;14.00;99.90;;;12.89;69.18;99560.38;10233644;28;97005;-89
2022/05/30 05:14:26;;;;;;;0.20;0.20;;;14.00;99.90;;;12.92;69.70;99562.69;10226797;28;98007;-88
2022/05/30 05:19:31;;;;;;;0.20;0.20;;;14.00;99.90;;;12.97;69.32;99580.75;10236259;28;97488;-87
2022/05/30 05:24:36;;;;;;;0.10;0.10;;;14.10;99.90;;;13.08;68.95;99569.53;10233801;28;98141;-87
2022/05/30 05:29:39;;;;;;;0.30;0.10;;;14.20;99.90;;;13.12;68.99;99584.91;10250518;28;96682;-88
2022/05/30 05:34:42;;;;;;;0.20;0.20;;;14.20;99.90;;;13.14;68.38;99592.72;10260568;28;96653;-88
2022/05/30 05:39:47;;;;;;;0.00;0.00;;;14.30;99.90;;;13.22;68.41;99597.91;10238671;28;96989;-89
2022/05/30 05:44:50;;;;;;;2.70;0.60;;;14.40;99.90;;;13.37;67.97;99597.75;10275221;28;97050;-88
2022/05/30 05:49:54;;;;;;;0.33;0.30;;;14.50;99.90;;;13.55;66.62;99607.88;10246598;28;97716;-88
2022/05/30 05:54:57;;;;;;;0.20;0.00;;;14.70;99.70;;;13.68;64.64;99604.44;10262957;28;96814;-88
2022/05/30 06:00:04;;;;;;;0.87;0.57;;;14.80;98.40;;;13.84;64.65;99610.19;10263415;28;96705;-89
2022/05/30 06:05:09;;;;;;;0.80;0.10;;;15.00;98.20;;;13.99;63.87;99617.22;10264308;28;98426;-89
2022/05/30 06:10:14;;;;;;;0.20;0.20;;;15.10;97.60;;;14.13;63.46;99608.97;10265961;28;97261;-88
2022/05/30 06:15:19;;;;;;;0.10;0.10;;;15.20;97.20;;;14.32;62.56;99593.97;10247262;28;97399;-89
2022/05/30 06:20:22;;;;;;;0.28;0.20;;;15.40;96.40;;;14.52;62.54;99612.72;10256181;28;96616;-89
2022/05/30 06:25:25;;;;;;;0.17;0.10;;;15.60;96.60;;;14.66;60.36;99613.50;10242173;28;96759;-80
2022/05/30 06:30:28;;;;;;;0.20;0.20;;;15.70;93.80;;;14.79;58.54;99610.78;10261714;28;97230;-78
2022/05/30 06:35:31;;;;;;;0.10;0.10;;;15.80;92.10;;;14.97;59.58;99610.94;10253874;28;98272;-87
2022/05/30 06:40:35;;;;;;;0.52;0.15;;;16.00;94.00;;;15.17;57.52;99613.59;10256368;28;96841;-87
2022/05/30 06:45:38;;;;;;;0.28;0.15;;;16.20;91.40;;;15.41;58.32;99616.53;10254696;28;97329;-87
2022/05/30 06:50:42;;;;;;;0.30;0.20;;;16.40;92.70;;;15.65;55.25;99612.31;10252468;28;98251;-87
2022/05/30 06:55:49;;;;;;;0.10;0.10;;;16.60;90.10;;;15.85;54.46;99617.59;10256553;28;100034;-87
2022/05/30 07:00:52;;;;;;;0.15;0.15;;;16.80;86.90;;;15.97;52.84;99631.94;10236958;28;96948;-88
2022/05/30 07:05:55;;;;;;;0.20;0.17;;;17.00;83.30;;;16.04;51.47;99619.31;10252033;28;96760;-87
2022/05/30 07:11:01;;;;;;;0.20;0.15;;;17.10;81.30;;;16.14;50.09;99632.22;10249836;28;96843;-89
2022/05/30 07:16:04;;;;;;;0.10;0.10;;;17.20;76.40;;;16.11;49.39;99633.47;10251888;28;96888;-88
2022/05/30 07:21:09;;;;;;;0.25;0.15;;;17.20;76.20;;;16.06;49.89;99633.28;10245779;28;97254;-88
2022/05/30 07:26:16;;;;;;;0.00;0.00;;;17.20;77.10;;;16.14;50.87;99627.69;10236730;28;97395;-88
2022/05/30 07:31:25;;;;;;;0.20;0.08;;;17.20;76.00;;;16.23;49.33;99626.34;10239940;28;98616;-89
2022/05/30 07:36:31;;;;;;;0.57;0.30;;;17.30;73.60;;;16.45;49.26;99634.03;10213785;28;97338;-90
2022/05/30 07:41:38;;;;;;;0.20;0.20;;;17.50;74.70;;;16.73;48.23;99631.75;10247817;28;96711;-89
2022/05/30 07:46:43;;;;;;;0.10;0.10;;;17.70;73.20;;;17.06;46.81;99638.59;10231223;28;97055;-91
2022/05/30 07:51:46;;;;;;;0.10;0.10;;;18.00;71.00;;;17.21;46.51;99633.66;10260615;28;96704;-89
2022/05/30 07:56:49;;;;;;;0.17;0.10;;;18.30;70.30;;;17.32;47.44;99640.97;10239016;28;98333;-91
2022/05/30 08:01:52;;;;;;;0.17;0.17;;;18.40;72.10;;;17.43;47.39;99638.59;10221177;28;98356;-89
2022/05/30 08:06:55;;;;;;;0.10;0.00;;;18.50;70.70;;;17.56;46.44;99641.91;10236077;28;96724;-91
2022/05/30 08:11:59;;;;;;;0.15;0.10;;;18.60;67.40;;;17.56;47.35;99641.09;10254664;28;96942;-91
2022/05/30 08:17:04;;;;;;;0.17;0.13;;;18.60;71.00;;;17.64;47.15;99640.81;10236098;28;96506;-90
2022/05/30 08:22:11;;;;;;;0.32;0.30;;;18.70;71.10;;;17.69;47.31;99650.84;10265667;28;96609;-91
2022/05/30 08:27:15;;;;;;;0.05;0.05;;;18.80;70.40;;;17.85;45.83;99656.44;10243544;28;96676;-88
2022/05/30 08:32:18;;;;;;;0.82;0.20;;;18.90;66.00;;;17.92;45.30;99664.41;10211529;28;96734;-90
2022/05/30 08:37:21;;;;;;;0.10;0.10;;;19.00;67.70;;;17.99;44.58;99661.63;10247567;28;96553;-91
2022/05/30 08:42:31;;;;;;;0.20;0.20;;;19.10;64.90;;;17.97;43.56;99659.16;10266371;28;96544;-91
2022/05/30 08:47:48;;;;;;;0.20;0.08;;;19.10;63.70;;;17.97;43.60;99647.59;10254397;28;96522;-90
2022/05/30 08:53:15;;;;;;;0.40;0.17;;;19.10;65.50;;;18.02;44.39;99650.41;10236687;28;97860;-91
2022/05/30 08:58:47;;;;;;;0.20;0.20;;;19.10;64.20;;;18.03;42.66;99663.63;10237703;28;96663;-90
2022/05/30 09:04:09;;;;;;;0.20;0.10;;;19.20;62.20;;;17.96;42.95;99659.41;10221901;28;96664;-91
2022/05/30 09:09:37;;;;;;;0.20;0.10;;;19.10;62.90;;;17.88;44.53;99668.63;10271074;28;96428;-91
2022/05/30 09:14:45;;;;;;;0.22;0.10;;;19.00;64.10;;;17.77;45.89;99677.44;10236439;28;96554;-91
2022/05/30 09:19:48;;;;;;;0.90;0.40;;;18.80;67.30;;;17.74;45.65;99670.63;10204737;28;96492;-90
2022/05/30 09:30:35;;;;;;;0.20;0.20;;;18.80;66.40;;;17.79;45.94;99680.72;10247966;28;96636;-90
2022/05/30 09:35:38;;;;;;;0.50;0.30;;;18.90;66.60;;;17.76;45.92;99689.25;10239744;28;96672;-90
2022/05/30 09:40:46;;;;;;;0.17;0.17;;;18.90;66.40;;;17.86;47.57;99674.19;10239987;28;96618;-90
2022/05/30 09:45:49;;;;;;;0.30;0.20;;;18.90;68.10;;;17.85;45.48;99683.31;10267572;28;96613;-91
2022/05/30 09:50:57;;;;;;;0.13;0.13;;;18.90;64.20;;;17.81;46.54;99692.91;10272154;28;97307;-89
2022/05/30 09:56:00;;;;;;;0.32;0.20;;;18.90;67.00;;;17.74;45.74;99697.50;10254436;28;96465;-90
2022/05/30 10:01:03;;;;;;;0.28;0.20;;;18.90;65.60;;;17.67;44.90;99715.56;10271423;28;96499;-89
2022/05/30 10:06:21;;;;;;;0.30;0.20;;;18.80;63.90;;;17.61;46.13;99713.78;10237944;28;96609;-89
2022/05/30 10:11:33;;;;;;;0.03;0.03;;;18.70;65.70;;;17.57;47.60;99720.63;10239248;28;96549;-91
2022/05/30 10:16:36;;;;;;;0.20;0.10;;;18.70;68.20;;;17.55;48.79;99714.69;10255485;28;96541;-90
2022/05/30 10:33:44;;;;;;;0.60;0.30;;;18.60;70.00;;;17.64;49.13;99702.59;10255619;28;96525;-89
2022/05/30 10:38:55;;;;;;;0.95;0.47;;;18.70;70.90;;;17.63;48.48;99704.47;10254196;28;97047;-90
2022/05/30 10:44:21;;;;;;;0.20;0.20;;;18.70;69.40;;;17.58;48.47;99717.75;10256922;28;96801;-90
2022/05/30 10:49:33;;;;;;;0.00;0.00;;;18.60;68.80;;;17.52;48.00;99720.50;10252589;28;96520;-90
2022/05/30 10:54:48;;;;;;;0.30;0.20;;;18.50;68.10;;;17.48;49.39;99730.06;10268846;28;96634;-90
2022/05/30 11:00:13;;;;;;;0.30;0.25;;;18.50;70.30;;;17.46;49.26;99734.84;10252447;28;96818;-90
2022/05/30 11:05:39;;;;;;;0.20;0.20;;;18.60;69.60;;;17.48;49.80;99733.56;10254862;28;96552;-90
2022/05/30 11:11:14;;;;;;;0.47;0.30;;;18.60;70.70;;;17.59;49.21;99723.94;10267875;28;96529;-90
2022/05/30 11:16:44;;;;;;;0.32;0.30;;;18.70;69.50;;;17.75;49.27;99739.50;10252548;28;96662;-89
2022/05/30 11:22:00;;;;;;;0.13;0.10;;;18.80;69.50;;;17.89;47.89;99740.94;10246988;28;96816;-92
2022/05/30 11:27:23;;;;;;;0.10;0.10;;;18.90;67.40;;;17.95;47.55;99736.53;10221822;28;96994;-90
2022/05/30 11:32:32;;;;;;;0.55;0.43;;;19.00;67.50;;;17.90;46.51;99757.91;10250374;28;97125;-90
2022/05/30 11:37:54;;;;;;;0.10;0.10;;;19.00;66.10;;;17.94;47.44;99726.03;10253216;28;96876;-90
2022/05/30 11:43:25;;;;;;;1.23;0.28;;;19.10;66.90;;;18.10;47.06;99738.81;10236226;28;96602;-90
2022/05/30 11:49:02;;;;;;;0.05;0.05;;;19.20;67.20;;;18.15;46.88;99722.81;10234937;28;96629;-90
2022/05/30 11:54:11;;;;;;;1.20;0.20;;;19.30;66.70;;;18.13;46.67;99735.69;10243909;28;98108;-89
2022/05/30 11:59:43;;;;;;;1.17;0.32;;;19.20;65.50;;;18.38;45.53;99730.94;10234642;28;97218;-90
2022/05/30 12:05:33;;;;;;;0.10;0.10;;;19.50;65.20;;;18.81;44.31;99712.91;10235407;28;96804;-90
2022/05/30 12:11:29;;;;;;;0.28;0.20;;;19.90;63.50;;;18.93;42.68;99719.94;10240502;28;96644;-90
2022/05/30 12:17:03;;;;;;;0.30;0.20;;;20.00;60.50;;;18.91;43.96;99721.25;10230901;28;97491;-90
2022/05/30 12:27:34;;;;;;;0.20;0.10;;;20.00;62.50;;;18.77;42.72;99701.78;10243429;28;97649;-89
2022/05/30 12:32:40;;;;;;;0.03;0.00;;;20.00;61.80;;;18.57;43.48;99709.34;10218686;28;96641;-90
2022/05/30 12:38:13;;;;;;;0.35;0.28;;;19.90;61.90;;;18.43;44.25;99714.94;10233154;28;96633;-89
2022/05/30 12:43:23;;;;;;;0.10;0.10;;;19.70;63.20;;;18.34;45.06;99708.25;10251282;28;97403;-89
2022/05/30 12:48:52;;;;;;;3.80;0.20;;;19.60;63.80;;;18.18;45.57;99711.63;10233107;28;96593;-89
2022/05/30 12:53:57;;;;;;;0.50;0.20;;;19.40;64.10;;;18.06;46.01;99710.75;10234397;28;96934;-89
2022/05/30 12:59:03;;;;;;;0.22;0.20;;;19.30;64.50;;;18.05;46.44;99709.09;10251539;28;96506;-89
2022/05/30 13:04:22;;;;;;;0.10;0.10;;;19.20;65.70;;;17.98;46.96;99703.00;10211299;28;99387;-89
2022/05/30 13:09:41;;;;;;;0.45;0.25;;;19.10;66.20;;;17.88;47.22;99700.88;10169649;28;96761;-89
2022/05/30 13:14:59;;;;;;;1.52;0.52;;;19.00;65.90;;;17.87;47.84;99702.75;10169862;28;96381;-89
2022/05/30 13:20:11;;;;;;;0.00;0.00;;;19.00;66.90;;;17.82;47.36;99710.66;10155180;28;98324;-89
2022/05/30 13:25:47;;;;;;;0.20;0.15;;;18.90;65.90;;;17.82;47.38;99726.78;10171317;28;96496;-88
2022/05/30 13:30:53;;;;;;;1.67;0.30;;;18.90;66.40;;;17.75;47.89;99720.69;10167755;28;96530;-90
2022/05/30 13:36:04;;;;;;;0.13;0.13;;;18.90;67.30;;;17.64;48.13;99727.59;10182066;28;97028;-90
2022/05/30 13:41:24;;;;;;;;;;;18.80;67.30;;;17.63;48.20;99734.00;10166225;28;97116;-90
2022/05/30 13:46:47;;;;;;;0.38;0.13;;;18.80;66.60;;;17.59;48.65;99754.31;10205573;28;96633;-90
2022/05/30 13:51:51;;;;;;;0.30;0.22;;;18.70;67.90;;;17.57;49.03;99747.50;10173566;28;96648;-90
2022/05/30 13:56:55;;;;;;;0.50;0.20;;;18.70;67.90;;;17.58;48.54;99751.84;10174898;28;98020;-90
2022/05/30 14:02:14;;;;;;;0.22;0.10;;;18.70;67.60;;;17.52;48.38;99736.63;10174947;28;96554;-91
2022/05/30 14:07:26;;;;;;;0.05;0.05;;;18.70;67.20;;;17.47;49.00;99737.31;10196420;28;96999;-90
2022/05/30 14:12:36;;;;;;;0.00;0.00;;;18.60;68.00;;;17.47;50.09;99749.91;10214695;28;96650;-91
2022/05/30 14:17:39;;;;;;;0.30;0.20;;;18.60;70.00;;;17.44;50.34;99753.03;10197913;28;96924;-90
2022/05/30 14:23:07;;;;;;;0.28;0.20;;;18.50;69.60;;;17.39;50.38;99748.31;10241799;28;96407;-92
2022/05/30 14:28:27;;;;;;;0.30;0.20;;;18.50;70.20;;;17.41;50.93;99746.25;10220161;28;96502;-90
2022/05/30 14:33:34;;;;;;;0.20;0.20;;;18.50;71.00;;;17.47;50.92;99739.16;10213668;28;96600;-89
2022/05/30 14:38:43;;;;;;;0.28;0.20;;;18.50;70.30;;;17.50;50.55;99739.53;10211892;28;97600;-89
2022/05/30 14:43:49;;;;;;;0.05;0.05;;;18.60;70.20;;;17.63;49.94;99733.16;10207682;28;97058;-90
2022/05/30 14:48:54;;;;;;;0.30;0.10;;;18.70;69.50;;;17.72;50.27;99737.25;10234285;28;96674;-90
2022/05/30 14:54:15;;;;;;;0.40;0.20;;;18.80;69.90;;;18.01;49.23;99734.81;10209774;28;96776;-91
2022/05/30 14:59:32;;;;;;;;;;;19.00;68.90;;;18.34;48.70;99735.13;10244316;28;96554;-92
2022/05/30 15:04:36;;;;;;;0.30;0.20;;;19.30;67.80;;;18.55;48.28;99730.28;10227515;28;96740;-91
2022/05/30 15:09:48;;;;;;;0.20;0.10;;;19.60;67.70;;;18.87;47.09;99731.63;10253550;28;96717;-90
2022/05/30 15:14:52;;;;;;;0.10;0.10;;;19.90;66.00;;;19.34;47.38;99723.53;10233808;28;96733;-91
2022/05/30 15:19:54;;;;;;;0.03;0.03;;;20.40;67.20;;;19.86;45.98;99714.66;10197895;28;96428;-91
2022/05/30 15:25:05;;;;;;;0.20;0.20;;;21.00;66.00;;;20.40;44.50;99715.94;10235720;28;96706;-91
2022/05/30 15:30:09;;;;;;;0.08;0.08;;;21.50;62.70;;;20.69;42.98;99718.56;10249144;28;97648;-91
2022/05/30 15:35:13;;;;;;;0.43;0.30;;;21.80;61.30;;;20.95;42.00;99720.63;10251717;28;97826;-90
2022/05/30 15:40:15;;;;;;;0.15;0.10;;;22.10;60.10;;;21.14;40.71;99726.56;10242345;28;96946;-91
2022/05/30 15:45:18;;;;;;;0.20;0.10;;;22.20;58.30;;;21.21;41.32;99720.97;10250072;28;97347;-92
2022/05/30 15:50:21;;;;;;;1.35;0.30;;;22.20;59.40;;;21.33;40.10;99725.22;10238905;28;97039;-91
2022/05/30 16:00:52;;;;;;;0.10;0.00;;;22.40;59.90;;;21.45;38.82;99727.81;10245416;28;97639;-92
2022/05/30 16:05:55;;;;;;;0.10;0.10;;;22.60;58.50;;;21.34;40.35;99732.25;10243626;28;96903;-90
2022/05/30 16:11:00;;;;;;;0.43;0.20;;;22.40;58.70;;;21.33;40.93;99724.41;10191499;28;96796;-91
2022/05/30 16:16:05;;;;;;;0.40;0.30;;;22.50;59.00;;;21.24;40.15;99731.28;10214645;28;96994;-89
2022/05/30 16:21:21;;;;;;;1.27;0.30;;;22.40;58.10;;;21.10;41.86;99734.31;10264387;28;96637;-89
2022/05/30 16:26:42;;;;;;;0.10;0.10;;;22.30;59.90;;;20.64;43.13;99743.63;10256624;28;97726;-88
2022/05/30 16:31:45;;;;;;;0.20;0.10;;;22.10;60.70;;;20.03;45.00;99754.13;10255276;28;98283;-89
2022/05/30 16:36:49;;;;;;;0.10;0.10;;;21.50;61.50;;;19.59;45.96;99754.81;10253458;28;97341;-88
2022/05/30 16:41:53;;;;;;;0.22;0.22;;;21.10;62.70;;;19.22;47.65;99763.16;10242100;28;98293;-90
2022/05/30 16:46:56;;;;;;;0.10;0.10;;;20.70;64.30;;;18.98;48.82;99765.84;10229603;28;97355;-88
2022/05/30 16:52:02;;;;;;;0.45;0.30;;;20.40;65.70;;;18.80;50.15;99776.69;10221807;28;98675;-88
2022/05/30 16:57:06;;;;;;;1.95;0.32;;;20.10;67.60;;;18.52;50.18;99779.16;10214059;28;96669;-90
2022/05/30 17:02:10;;;;;;;0.20;0.20;;;19.90;67.10;;;18.31;50.90;99775.97;10231761;28;96721;-89
2022/05/30 17:07:14;;;;;;;0.60;0.17;;;19.70;68.00;;;18.13;51.74;99784.91;10231998;28;97275;-89
2022/05/30 17:12:18;;;;;;;0.10;0.08;;;19.50;69.00;;;17.98;52.39;99789.00;10245538;28;96600;-89
2022/05/30 17:17:21;;;;;;;0.28;0.10;;;19.30;69.40;;;17.90;53.46;99793.66;10244158;28;97944;-89
2022/05/30 17:22:23;;;;;;;0.40;0.10;;;19.30;71.50;;;17.79;54.09;99791.72;10253803;28;96552;-88
2022/05/30 17:32:49;;;;;;;0.05;0.05;;;19.00;71.40;;;17.68;54.69;99800.50;10271057;28;96523;-88
2022/05/30 17:37:52;;;;;;;0.50;0.45;;;19.00;71.80;;;17.68;55.14;99803.19;10281309;28;96473;-88
2022/05/30 17:42:57;;;;;;;0.20;0.20;;;19.00;74.00;;;17.60;54.50;99803.50;10258940;28;98018;-89
2022/05/30 17:48:09;;;;;;;0.45;0.28;;;18.90;72.10;;;17.50;54.56;99808.53;10254022;28;96459;-89
2022/05/30 17:53:12;;;;;;;1.15;0.20;;;18.80;72.40;;;17.35;54.90;99815.09;10242876;28;96617;-89
2022/05/30 17:58:15;;;;;;;0.20;0.20;;;18.70;72.90;;;17.21;55.48;99816.25;10255522;28;96580;-88
2022/05/30 18:03:18;;;;;;;0.00;0.00;;;18.60;74.10;;;17.05;55.82;99819.50;10254217;28;98515;-88
2022/05/30 18:08:35;;;;;;;0.22;0.15;;;18.40;75.10;;;16.93;56.99;99834.69;10257232;28;97323;-89
2022/05/30 18:14:12;;;;;;;0.10;0.10;;;18.30;76.10;;;16.77;57.39;99831.47;10270110;28;96586;-89
2022/05/30 18:19:36;;;;;;;0.20;0.05;;;18.10;77.40;;;16.54;58.30;99836.53;10261067;28;96592;-88
2022/05/30 18:25:25;;;;;;;0.47;0.30;;;17.80;79.30;;;16.23;59.23;99848.06;10232264;28;98180;-88
2022/05/30 18:30:54;;;;;;;0.10;0.10;;;17.50;80.30;;;15.97;59.97;99851.66;10215300;28;97512;-88
2022/05/30 18:36:36;;;;;;;0.10;0.10;;;17.30;81.30;;;15.76;60.57;99866.97;10201830;28;96764;-89
2022/05/30 18:41:51;;;;;;;0.17;0.17;;;17.10;81.60;;;15.60;61.39;99867.38;10240945;28;96622;-90
2022/05/30 18:47:03;;;;;;;0.35;0.25;;;16.90;83.70;;;15.46;62.23;99863.06;10266622;28;98435;-88
2022/05/30 18:52:07;;;;;;;0.00;0.00;;;16.70;84.50;;;15.36;62.40;99881.41;10253219;28;96670;-88
2022/05/30 18:57:38;;;;;;;0.20;0.20;;;16.60;85.00;;;15.22;63.19;99886.75;10256721;28;96764;-88
2022/05/30 19:02:46;;;;;;;0.37;0.37;;;16.50;86.50;;;15.08;63.40;99895.81;10262200;28;96680;-88
2022/05/30 19:07:50;;;;;;;0.63;0.40;;;16.30;86.70;;;14.96;63.71;99898.25;10258825;28;96655;-88
2022/05/30 19:13:18;;;;;;;1.08;0.40;;;16.20;87.20;;;14.87;63.86;99895.97;10243692;28;96939;-88
2022/05/30 19:18:30;;;;;;;0.45;0.30;;;16.20;87.60;;;14.75;64.59;99901.09;10240703;28;97172;-88
2022/05/30 19:23:33;;;;;;;0.10;0.10;;;16.10;88.80;;;14.68;64.68;99911.78;10248109;28;97122;-88
2022/05/30 19:28:37;;;;;;;0.35;0.30;;;15.90;90.00;;;14.58;65.29;99929.25;10255120;28;97808;-88
2022/05/30 19:33:40;;;;;;;1.75;0.50;;;15.90;90.20;;;14.49;65.61;99933.94;10261787;28;96624;-89
2022/05/30 19:38:43;;;;;;;0.22;0.22;;;15.80;90.90;;;14.31;66.05;99936.28;10231967;28;98395;-88
2022/05/30 19:43:46;;;;;;;0.00;0.00;;;15.60;91.50;;;14.20;66.80;99943.00;10244957;28;96684;-88
2022/05/30 19:48:51;;;;;;;0.37;0.37;;;15.40;92.40;;;14.12;67.23;99946.69;10270058;28;97020;-88
2022/05/30 19:53:58;;;;;;;0.20;0.10;;;15.30;93.10;;;14.08;67.35;99942.75;10237333;28;97382;-88
2022/05/30 19:59:03;;;;;;;0.10;0.10;;;15.30;93.70;;;14.06;67.67;99949.31;10264572;28;96619;-88
2022/05/30 20:04:07;;;;;;;0.38;0.20;;;15.20;94.20;;;14.01;68.06;99957.91;10227486;28;98341;-88
2022/05/30 20:09:11;;;;;;;0.25;0.20;;;15.20;95.00;;;14.00;68.40;99956.28;10253390;28;96718;-88
2022/05/30 20:14:14;;;;;;;1.90;0.23;;;15.20;95.60;;;13.92;68.55;99959.09;10229336;28;96681;-87
2022/05/30 20:19:18;;;;;;;0.13;0.13;;;15.10;96.00;;;13.89;68.91;99964.81;10237633;28;96636;-87
2022/05/30 20:24:21;;;;;;;0.40;0.30;;;15.10;96.90;;;13.84;69.57;99965.41;10240800;28;96742;-87
2022/05/30 20:29:24;;;;;;;0.10;0.10;;;15.00;97.90;;;13.82;70.11;99971.97;10250338;28;97419;-88
2022/05/30 20:34:27;;;;;;;0.30;0.20;;;15.00;98.90;;;13.81;70.08;99979.16;10264321;28;97128;-88
2022/05/30 20:39:30;;;;;;;0.38;0.35;;;15.00;99.40;;;13.84;70.26;99980.59;10249281;28;96612;-87
2022/05/30 20:44:33;;;;;;;0.10;0.10;;;15.00;99.60;;;13.87;70.54;99988.25;10249129;28;96616;-87
2022/05/30 20:49:36;;;;;;;0.40;0.40;;;15.00;99.90;;;13.87;70.81;99988.25;10258949;28;96618;-87
2022/05/30 20:54:41;;;;;;;0.50;0.37;;;15.00;99.90;;;13.83;70.96;99990.47;10268260;28;96663;-87
2022/05/30 20:59:45;;;;;;;0.27;0.20;;;15.00;99.90;;;13.77;71.12;99998.41;10262312;28;96646;-88
2022/05/30 21:04:49;;;;;;;0.20;0.10;;;14.90;99.90;;;13.73;71.56;99992.63;10232341;28;96739;-87
2022/05/30 21:09:52;;;;;;;0.73;0.10;;;14.90;99.90;;;13.72;71.81;99990.97;10260216;28;96838;-87
2022/05/30 21:14:56;;;;;;;0.10;0.10;;;14.90;99.90;;;13.74;71.78;100002.31;10266544;28;96589;-87
2022/05/30 21:20:06;;;;;;;0.50;0.27;;;14.90;99.90;;;13.76;71.92;100004.78;10275763;28;96606;-89
2022/05/30 21:25:10;;;;;;;0.30;0.10;;;14.90;99.90;;;13.76;71.84;100007.47;10248854;28;97295;-88
2022/05/30 21:30:18;;;;;;;0.30;0.23;;;15.00;99.90;;;13.76;72.02;100012.81;10282400;28;96784;-88
2022/05/30 21:35:22;;;;;;;0.80;0.43;;;15.00;99.90;;;13.73;72.20;100011.31;10266577;28;96664;-88
2022/05/30 21:40:30;;;;;;;0.10;0.10;;;14.90;99.90;;;13.70;72.28;100009.06;10257388;28;97275;-89
2022/05/30 21:45:33;;;;;;;0.10;0.10;;;14.90;99.90;;;13.66;72.74;100019.28;10209833;28;98077;-87
2022/05/30 21:50:36;;;;;;;0.37;0.23;;;14.90;99.90;;;13.66;72.72;100007.78;10234026;28;98499;-88
2022/05/30 21:55:40;;;;;;;0.63;0.23;;;14.80;99.90;;;13.66;72.86;100016.59;10264051;28;96601;-89
2022/05/30 22:00:50;;;;;;;0.73;0.37;;;14.90;99.90;;;13.71;73.01;100007.22;10263731;28;96793;-88
2022/05/30 22:06:05;;;;;;;0.20;0.10;;;14.90;99.90;;;13.76;72.98;100004.78;10250546;28;97816;-88
2022/05/30 22:11:14;;;;;;;0.57;0.40;;;15.00;99.90;;;13.80;72.76;100011.41;10256548;28;96736;-88